Terminal Aerodrome Forecast
Issued by NWS

Home | Current Version | Previous Version | Text Only | Print | Product List | Glossary On
Versions: 1 2 3 4 5 6 7 8 9 10 11 12 13 14 15 16 17 18 19 20 21 22 23 24 25 26 27 28 29 30 31 32
000
FTUS45 KLKN 160320 AAB
TAFTPH
TAF AMD
KTPH 160320Z 1603/1624 33011KT P6SM VCTS OVC100CB
      TEMPO 1603/1604 VRB20G35KT -TSRA FEW025 BKN070CB
     FM160500 36009KT P6SM BKN130 OVC200
     FM161800 20007KT P6SM VCTS SCT100CB BKN150=

USA.gov is the U.S. government's official web portal to all federal, state and local government web resources and services.